Observation data for Plains on 06/19/2019      Previous  Date  Next       Current Mesonet Observations  Soil Data  Daily Summary Page  Observations in Plain Language
KPPS 190500Z 18009KT 23/12 A2998 RMK A01 T02290122  RH  053%=      5-min Rain = 0
KPPS 190505Z 18009KT 23/12 A2998 RMK A01 T02290123  RH  053%=      5-min Rain = 0
KPPS 190510Z 18009KT 23/13 A2998 RMK A01 T02270125  RH  055%=      5-min Rain = 0
KPPS 190515Z 18009KT 23/13 A2998 RMK A01 T02250127  RH  056%=      5-min Rain = 0
KPPS 190520Z 18009KT 22/13 A2997 RMK A01 T02230129  RH  057%=      5-min Rain = 0
KPPS 190525Z 18010KT 22/13 A2997 RMK A01 T02210130  RH  058%=      5-min Rain = 0
KPPS 190530Z 18009KT 22/13 A2998 RMK A01 T02200132  RH  060%=      5-min Rain = 0
KPPS 190535Z 17009KT 22/13 A2997 RMK A01 T02180134  RH  061%=      5-min Rain = 0
KPPS 190540Z 17008KT 22/13 A2997 RMK A01 T02180132  RH  060%=      5-min Rain = 0
KPPS 190545Z 17008KT 22/13 A2997 RMK A01 T02170133  RH  061%=      5-min Rain = 0
KPPS 190550Z 17009KT 22/13 A2997 RMK A01 T02170134  RH  062%=      5-min Rain = 0
KPPS 190555Z 18009KT 22/14 A2997 RMK A01 T02170135  RH  062%=      5-min Rain = 0
KPPS 190600Z 17009KT 22/14 A2996 RMK A01 T02150135  RH  063%=      5-min Rain = 0
KPPS 190605Z 17011KT 22/13 A2996 RMK A01 T02160128  RH  060%=      5-min Rain = 0
KPPS 190610Z 17011KT 22/12 A2996 RMK A01 T02180123  RH  057%=      5-min Rain = 0
KPPS 190615Z 17011KT 22/12 A2996 RMK A01 T02180121  RH  056%=      5-min Rain = 0
KPPS 190620Z 17012KT 22/12 A2996 RMK A01 T02180117  RH  055%=      5-min Rain = 0
KPPS 190625Z 17011KT 22/12 A2995 RMK A01 T02190115  RH  053%=      5-min Rain = 0
KPPS 190630Z 17012KT 22/12 A2995 RMK A01 T02170115  RH  054%=      5-min Rain = 0
KPPS 190635Z 17012KT 22/11 A2995 RMK A01 T02160114  RH  054%=      5-min Rain = 0
KPPS 190640Z 17011G16KT 21/12 A2995 RMK A01 T02140116  RH  056%=      5-min Rain = 0
KPPS 190645Z 17011KT 21/12 A2995 RMK A01 T02120116  RH  056%=      5-min Rain = 0
KPPS 190650Z 17010KT 21/12 A2995 RMK A01 T02100116  RH  057%=      5-min Rain = 0
KPPS 190655Z 17010KT 21/11 A2995 RMK A01 T02100112  RH  055%=      5-min Rain = 0
KPPS 190700Z 17009KT 21/11 A2995 RMK A01 T02080111  RH  056%=      5-min Rain = 0
KPPS 190705Z 16009KT 21/11 A2995 RMK A01 T02080110  RH  056%=      5-min Rain = 0
KPPS 190710Z 16009KT 21/11 A2995 RMK A01 T02070110  RH  056%=      5-min Rain = 0
KPPS 190715Z 16010KT 21/11 A2994 RMK A01 T02070109  RH  055%=      5-min Rain = 0
KPPS 190720Z 16010KT 21/11 A2994 RMK A01 T02070110  RH  056%=      5-min Rain = 0
KPPS 190725Z 15009KT 21/11 A2994 RMK A01 T02050111  RH  056%=      5-min Rain = 0
KPPS 190730Z 15008KT 20/11 A2994 RMK A01 T02020113  RH  059%=      5-min Rain = 0
KPPS 190735Z 15008KT 20/12 A2994 RMK A01 T01970116  RH  062%=      5-min Rain = 0
KPPS 190740Z 15007KT 20/12 A2993 RMK A01 T01950118  RH  063%=      5-min Rain = 0
KPPS 190745Z 15007KT 19/12 A2993 RMK A01 T01930119  RH  065%=      5-min Rain = 0
KPPS 190750Z 16006KT 19/12 A2993 RMK A01 T01920120  RH  065%=      5-min Rain = 0
KPPS 190755Z 16006KT 19/12 A2993 RMK A01 T01910120  RH  066%=      5-min Rain = 0
KPPS 190800Z 15008KT 19/12 A2993 RMK A01 T01920119  RH  065%=      5-min Rain = 0
KPPS 190805Z 15008KT 19/12 A2993 RMK A01 T01900121  RH  067%=      5-min Rain = 0
KPPS 190810Z 15008KT 19/12 A2993 RMK A01 T01890123  RH  068%=      5-min Rain = 0
KPPS 190815Z 16008KT 19/13 A2993 RMK A01 T01920125  RH  067%=      5-min Rain = 0
KPPS 190820Z 16009KT 19/13 A2992 RMK A01 T01930126  RH  067%=      5-min Rain = 0
KPPS 190825Z 16009KT 19/13 A2992 RMK A01 T01910127  RH  069%=      5-min Rain = 0
KPPS 190830Z 16008KT 19/13 A2992 RMK A01 T01900128  RH  070%=      5-min Rain = 0
KPPS 190835Z 16009KT 19/13 A2992 RMK A01 T01880128  RH  071%=      5-min Rain = 0
KPPS 190840Z 17009KT 19/13 A2991 RMK A01 T01880128  RH  071%=      5-min Rain = 0
KPPS 190845Z 17009KT 19/13 A2991 RMK A01 T01880128  RH  071%=      5-min Rain = 0
KPPS 190850Z 17010KT 19/13 A2991 RMK A01 T01870127  RH  071%=      5-min Rain = 0
KPPS 190855Z 16011KT 19/13 A2991 RMK A01 T01880127  RH  070%=      5-min Rain = 0
KPPS 190900Z 17010KT 19/13 A2991 RMK A01 T01870127  RH  071%=      5-min Rain = 0
KPPS 190905Z 17011KT 19/13 A299 RMK A01 T01850127  RH  072%=      5-min Rain = 0
KPPS 190910Z 17010KT 18/13 A299 RMK A01 T01840127  RH  072%=      5-min Rain = 0
KPPS 190915Z 17010KT 18/13 A299 RMK A01 T01830127  RH  073%=      5-min Rain = 0
KPPS 190920Z 17010KT 18/13 A299 RMK A01 T01830127  RH  072%=      5-min Rain = 0
KPPS 190925Z 17010KT 18/13 A2989 RMK A01 T01840127  RH  072%=      5-min Rain = 0
KPPS 190930Z 17010KT 18/13 A2989 RMK A01 T01830128  RH  073%=      5-min Rain = 0
KPPS 190935Z 18009KT 18/13 A299 RMK A01 T01820128  RH  074%=      5-min Rain = 0
KPPS 190940Z 18009KT 18/13 A299 RMK A01 T01810129  RH  075%=      5-min Rain = 0
KPPS 190945Z 18010KT 18/13 A299 RMK A01 T01820128  RH  074%=      5-min Rain = 0
KPPS 190950Z 19009KT 18/13 A299 RMK A01 T01800128  RH  074%=      5-min Rain = 0
KPPS 190955Z 19010KT 18/13 A2989 RMK A01 T01800128  RH  075%=      5-min Rain = 0
KPPS 191000Z 19009KT 18/13 A2989 RMK A01 T01800128  RH  075%=      5-min Rain = 0
KPPS 191005Z 20008KT 18/13 A2989 RMK A01 T01790128  RH  075%=      5-min Rain = 0
KPPS 191010Z 24006G13KT 18/13 A2991 RMK A01 T01780129  RH  076%=      5-min Rain = 0
KPPS 191015Z 34016G21KT 17/13 A2994 RMK A01 T01740128  RH  077%=      5-min Rain = 0
KPPS 191020Z 25006G15KT 18/13 A2992 RMK A01 T01800126  RH  074%=      5-min Rain = 0
KPPS 191025Z 25006G12KT 19/13 A2993 RMK A01 T01870126  RH  070%=      5-min Rain = 0
KPPS 191030Z 25005KT 19/13 A2993 RMK A01 T01860126  RH  071%=      5-min Rain = 0
KPPS 191035Z 21007KT 19/13 A2992 RMK A01 T01870126  RH  070%=      5-min Rain = 0
KPPS 191040Z 25006KT 19/13 A2993 RMK A01 T01850126  RH  072%=      5-min Rain = 0
KPPS 191045Z 35008KT 18/13 A2995 RMK A01 T01790127  RH  074%=      5-min Rain = 0
KPPS 191050Z 12003KT 18/13 A2993 RMK A01 T01750127  RH  076%=      5-min Rain = 0
KPPS 191055Z 28001KT 17/13 A2993 RMK A01 T01730127  RH  078%=      5-min Rain = 0
KPPS 191100Z 31003KT 17/13 A2994 RMK A01 T01680127  RH  080%=      5-min Rain = 0
KPPS 191105Z 32001KT 17/13 A2994 RMK A01 T01660127  RH  081%=      5-min Rain = 0
KPPS 191110Z 33000KT 16/13 A2994 RMK A01 T01630126  RH  082%=      5-min Rain = 0
KPPS 191115Z 20001KT 16/13 A2994 RMK A01 T01630127  RH  082%=      5-min Rain = 0
KPPS 191120Z 20002KT 17/13 A2993 RMK A01 T01650127  RH  081%=      5-min Rain = 0
KPPS 191125Z 21001KT 17/13 A2994 RMK A01 T01660127  RH  081%=      5-min Rain = 0
KPPS 191130Z 01004KT 16/13 A2994 RMK A01 T01630127  RH  082%=      5-min Rain = 0
KPPS 191135Z 30001KT 16/13 A2993 RMK A01 T01620127  RH  083%=      5-min Rain = 0
KPPS 191140Z 23004KT 17/13 A2993 RMK A01 T01650127  RH  081%=      5-min Rain = 0
KPPS 191145Z 22006KT 17/13 A2993 RMK A01 T01660126  RH  081%=      5-min Rain = 0
KPPS 191150Z 27004KT 16/13 A2994 RMK A01 T01620125  RH  082%=      5-min Rain = 0
KPPS 191155Z 31003KT 15/13 A2994 RMK A01 T01520125  RH  088%=      5-min Rain = 0
KPPS 191200Z 33004KT 15/13 A2995 RMK A01 T01500126  RH  089%=      5-min Rain = 0
KPPS 191205Z 33005KT 15/13 A2994 RMK A01 T01500125  RH  089%=      5-min Rain = 0
KPPS 191210Z 32005KT 15/13 A2994 RMK A01 T01500125  RH  089%=      5-min Rain = 0
KPPS 191215Z 31005KT 15/13 A2994 RMK A01 T01520126  RH  088%=      5-min Rain = 0
KPPS 191220Z 34005KT 16/13 A2994 RMK A01 T01560127  RH  086%=      5-min Rain = 0
KPPS 191225Z 36005KT 16/13 A2994 RMK A01 T01590126  RH  084%=      5-min Rain = 0
KPPS 191230Z 33005KT 16/13 A2994 RMK A01 T01620126  RH  082%=      5-min Rain = 0
KPPS 191235Z 31004KT 17/13 A2994 RMK A01 T01650128  RH  082%=      5-min Rain = 0
KPPS 191240Z 32004KT 17/13 A2994 RMK A01 T01690130  RH  081%=      5-min Rain = 0
KPPS 191245Z 32002KT 17/13 A2994 RMK A01 T01730133  RH  081%=      5-min Rain = 0
KPPS 191250Z 30001KT 18/13 A2993 RMK A01 T01800134  RH  078%=      5-min Rain = 0
KPPS 191255Z 31002KT 19/13 A2994 RMK A01 T01850134  RH  075%=      5-min Rain = 0
KPPS 191300Z 32000KT 19/13 A2994 RMK A01 T01910134  RH  072%=      5-min Rain = 0
KPPS 191305Z 32000KT 20/13 A2994 RMK A01 T01970134  RH  070%=      5-min Rain = 0
KPPS 191310Z 23000KT 20/13 A2994 RMK A01 T02030131  RH  066%=      5-min Rain = 0
KPPS 191315Z 22001KT 21/13 A2994 RMK A01 T02050130  RH  064%=      5-min Rain = 0
KPPS 191320Z 24002KT 20/13 A2994 RMK A01 T02030129  RH  065%=      5-min Rain = 0
KPPS 191325Z 27001KT 21/13 A2994 RMK A01 T02050130  RH  065%=      5-min Rain = 0
KPPS 191330Z 25002KT 21/13 A2994 RMK A01 T02070131  RH  064%=      5-min Rain = 0
KPPS 191335Z 22002KT 21/13 A2994 RMK A01 T02080127  RH  062%=      5-min Rain = 0
KPPS 191340Z 22003KT 21/13 A2994 RMK A01 T02090128  RH  062%=      5-min Rain = 0
KPPS 191345Z 23004KT 21/13 A2994 RMK A01 T02100128  RH  062%=      5-min Rain = 0
KPPS 191350Z 24004KT 21/13 A2994 RMK A01 T02130130  RH  061%=      5-min Rain = 0
KPPS 191355Z 24005KT 22/13 A2994 RMK A01 T02160130  RH  061%=      5-min Rain = 0
KPPS 191400Z 24005KT 22/13 A2994 RMK A01 T02190131  RH  060%=      5-min Rain = 0
KPPS 191405Z 23005KT 22/13 A2994 RMK A01 T02210131  RH  059%=      5-min Rain = 0
KPPS 191410Z 22005KT 22/13 A2994 RMK A01 T02230130  RH  058%=      5-min Rain = 0
KPPS 191415Z 23004KT 23/13 A2994 RMK A01 T02260132  RH  057%=      5-min Rain = 0
KPPS 191420Z 23004KT 23/13 A2994 RMK A01 T02310133  RH  056%=      5-min Rain = 0
KPPS 191425Z 23003KT 23/13 A2994 RMK A01 T02320133  RH  056%=      5-min Rain = 0
KPPS 191430Z 24004KT 24/13 A2994 RMK A01 T02360133  RH  055%=      5-min Rain = 0
KPPS 191435Z 25003KT 24/13 A2994 RMK A01 T02380133  RH  054%=      5-min Rain = 0
KPPS 191440Z 23003KT 24/13 A2993 RMK A01 T02410133  RH  053%=      5-min Rain = 0
KPPS 191445Z 22004KT 24/13 A2994 RMK A01 T02430134  RH  053%=      5-min Rain = 0
KPPS 191450Z 24003KT 25/14 A2994 RMK A01 T02470135  RH  052%=      5-min Rain = 0
KPPS 191455Z 26004KT 25/13 A2994 RMK A01 T02500134  RH  050%=      5-min Rain = 0
KPPS 191500Z 27005KT 25/14 A2994 RMK A01 T02540136  RH  050%=      5-min Rain = 0
KPPS 191505Z 29006KT 26/13 A2994 RMK A01 T02570133  RH  048%=      5-min Rain = 0
KPPS 191510Z 27005KT 26/14 A2994 RMK A01 T02600136  RH  048%=      5-min Rain = 0
KPPS 191515Z 29007KT 26/14 A2993 RMK A01 T02640135  RH  047%=      5-min Rain = 0
KPPS 191520Z 29006G11KT 27/13 A2993 RMK A01 T02660134  RH  046%=      5-min Rain = 0
KPPS 191525Z 29008KT 27/14 A2993 RMK A01 T02710137  RH  045%=      5-min Rain = 0
KPPS 191530Z 29007KT 27/14 A2993 RMK A01 T02710135  RH  045%=      5-min Rain = 0
KPPS 191535Z 29006KT 27/14 A2993 RMK A01 T02730136  RH  045%=      5-min Rain = 0
KPPS 191540Z 30006KT 28/14 A2993 RMK A01 T02770136  RH  044%=      5-min Rain = 0
KPPS 191545Z 29006KT 28/14 A2993 RMK A01 T02770136  RH  044%=      5-min Rain = 0
KPPS 191550Z 31007KT 28/14 A2993 RMK A01 T02790135  RH  043%=      5-min Rain = 0
KPPS 191555Z 30006KT 29/14 A2993 RMK A01 T02850135  RH  042%=      5-min Rain = 0
KPPS 191600Z 29007KT 29/13 A2993 RMK A01 T02900133  RH  040%=      5-min Rain = 0
KPPS 191605Z 30008KT 29/13 A2993 RMK A01 T02940126  RH  037%=      5-min Rain = 0
KPPS 191610Z 31010KT 30/12 A2993 RMK A01 T02970123  RH  036%=      5-min Rain = 0
KPPS 191615Z 29009KT 30/12 A2993 RMK A01 T02980122  RH  035%=      5-min Rain = 0
KPPS 191620Z 31009KT 30/12 A2993 RMK A01 T03010123  RH  035%=      5-min Rain = 0
KPPS 191625Z 29007KT 31/13 A2993 RMK A01 T03060126  RH  035%=      5-min Rain = 0
KPPS 191630Z 28007KT 31/12 A2993 RMK A01 T03090118  RH  032%=      5-min Rain = 0
KPPS 191635Z 29009G15KT 31/11 A2993 RMK A01 T03120114  RH  031%=      5-min Rain = 0
KPPS 191640Z 29010KT 31/10 A2993 RMK A01 T03140099  RH  027%=      5-min Rain = 0
KPPS 191645Z 29009G15KT 32/10 A2993 RMK A01 T03180096  RH  026%=      5-min Rain = 0
KPPS 191650Z 29011KT 32/08 A2993 RMK A01 T03210083  RH  024%=      5-min Rain = 0
KPPS 191655Z 30011KT 32/09 A2993 RMK A01 T03210086  RH  024%=      5-min Rain = 0
KPPS 191700Z 30009G15KT 33/09 A2993 RMK A01 T03260088  RH  024%=      5-min Rain = 0
KPPS 191705Z 29011G16KT 33/09 A2993 RMK A01 T03310086  RH  023%=      5-min Rain = 0
KPPS 191710Z 31013G19KT 33/07 A2993 RMK A01 T03310074  RH  021%=      5-min Rain = 0
KPPS 191715Z 30012G19KT 33/07 A2993 RMK A01 T03310069  RH  020%=      5-min Rain = 0
KPPS 191720Z 30014G20KT 33/07 A2993 RMK A01 T03300074  RH  021%=      5-min Rain = 0
KPPS 191725Z 30012G18KT 33/07 A2993 RMK A01 T03300067  RH  020%=      5-min Rain = 0
KPPS 191730Z 31014G20KT 33/07 A2993 RMK A01 T03340066  RH  019%=      5-min Rain = 0
KPPS 191735Z 30013G19KT 33/06 A2993 RMK A01 T03330058  RH  018%=      5-min Rain = 0
KPPS 191740Z 29013G21KT 33/06 A2993 RMK A01 T03340055  RH  018%=      5-min Rain = 0
KPPS 191745Z 31016G23KT 33/06 A2993 RMK A01 T03320055  RH  018%=      5-min Rain = 0
KPPS 191750Z 29011G18KT 33/06 A2993 RMK A01 T03320058  RH  018%=      5-min Rain = 0
KPPS 191755Z 30013G18KT 33/06 A2993 RMK A01 T03340056  RH  018%=      5-min Rain = 0
KPPS 191800Z 31012G19KT 34/05 A2993 RMK A01 T03350050  RH  017%=      5-min Rain = 0
KPPS 191805Z 30015G21KT 34/05 A2993 RMK A01 T03380045  RH  016%=      5-min Rain = 0
KPPS 191810Z 31015G21KT 34/04 A2993 RMK A01 T03360042  RH  016%=      5-min Rain = 0
KPPS 191815Z 29015G22KT 33/04 A2993 RMK A01 T03340038  RH  016%=      5-min Rain = 0
KPPS 191820Z 28017G24KT 34/04 A2992 RMK A01 T03400043  RH  016%=      5-min Rain = 0
KPPS 191825Z 30016G22KT 34/04 A2993 RMK A01 T03380041  RH  016%=      5-min Rain = 0
KPPS 191830Z 31015G21KT 34/04 A2992 RMK A01 T03380038  RH  016%=      5-min Rain = 0
KPPS 191835Z 30015G24KT 34/04 A2992 RMK A01 T03370041  RH  016%=      5-min Rain = 0
KPPS 191840Z 29017G22KT 34/04 A2992 RMK A01 T03400040  RH  016%=      5-min Rain = 0
KPPS 191845Z 28015G24KT 34/04 A2992 RMK A01 T03380039  RH  016%=      5-min Rain = 0
KPPS 191850Z 29015G22KT 34/04 A2992 RMK A01 T03410039  RH  015%=      5-min Rain = 0
KPPS 191855Z 28017G24KT 34/04 A2992 RMK A01 T03420035  RH  015%=      5-min Rain = 0
KPPS 191900Z 30015KT 35/04 A2992 RMK A01 T03450041  RH  015%=      5-min Rain = 0
KPPS 191905Z 29017G22KT 34/03 A2991 RMK A01 T03430030  RH  014%=      5-min Rain = 0
KPPS 191910Z 26015G24KT 35/04 A2991 RMK A01 T03450037  RH  015%=      5-min Rain = 0
KPPS 191915Z 28014G20KT 34/04 A2991 RMK A01 T03440036  RH  015%=      5-min Rain = 0
KPPS 191920Z 28014G23KT 35/04 A2991 RMK A01 T03460038  RH  015%=      5-min Rain = 0
KPPS 191925Z 27018G27KT 35/03 A2991 RMK A01 T03470031  RH  014%=      5-min Rain = 0
KPPS 191930Z 27019G24KT 35/03 A299 RMK A01 T03450028  RH  014%=      5-min Rain = 0
KPPS 191935Z 28015G25KT 35/03 A299 RMK A01 T03470025  RH  013%=      5-min Rain = 0
KPPS 191940Z 26015G23KT 35/03 A299 RMK A01 T03470027  RH  014%=      5-min Rain = 0
KPPS 191945Z 28017G25KT 35/03 A299 RMK A01 T03470027  RH  014%=      5-min Rain = 0
KPPS 191950Z 30018G26KT 35/02 A299 RMK A01 T03450023  RH  013%=      5-min Rain = 0
KPPS 191955Z 27019G29KT 35/01 A299 RMK A01 T03480012  RH  012%=      5-min Rain = 0
KPPS 192000Z 26017G24KT 35/02 A299 RMK A01 T03480023  RH  013%=      5-min Rain = 0
KPPS 192005Z 27019G29KT 35/02 A299 RMK A01 T03510024  RH  013%=      5-min Rain = 0
KPPS 192010Z 28018G26KT 35/03 A299 RMK A01 T03500029  RH  014%=      5-min Rain = 0
KPPS 192015Z 28019G26KT 35/02 A2989 RMK A01 T03480021  RH  013%=      5-min Rain = 0
KPPS 192020Z 28016G23KT 35/02 A2989 RMK A01 T03510020  RH  013%=      5-min Rain = 0
KPPS 192025Z 28017G25KT 35/03 A2989 RMK A01 T03510032  RH  014%=      5-min Rain = 0
KPPS 192030Z 29022G30KT 35/03 A2989 RMK A01 T03480029  RH  014%=      5-min Rain = 0
KPPS 192035Z 26017G22KT 35/03 A2989 RMK A01 T03490030  RH  014%=      5-min Rain = 0
KPPS 192040Z 27017G24KT 35/03 A2989 RMK A01 T03500030  RH  014%=      5-min Rain = 0
KPPS 192045Z 28017G26KT 35/03 A2989 RMK A01 T03520029  RH  013%=      5-min Rain = 0
KPPS 192050Z 26015G22KT 35/03 A2989 RMK A01 T03510031  RH  014%=      5-min Rain = 0
KPPS 192055Z 27015G25KT 35/04 A2988 RMK A01 T03520039  RH  014%=      5-min Rain = 0
KPPS 192100Z 27014G19KT 35/04 A2988 RMK A01 T03500038  RH  015%=      5-min Rain = 0
KPPS 192105Z 29018G26KT 35/04 A2988 RMK A01 T03490041  RH  015%=      5-min Rain = 0
KPPS 192110Z 28013G21KT 35/04 A2988 RMK A01 T03520042  RH  015%=      5-min Rain = 0
KPPS 192115Z 27013G24KT 35/04 A2988 RMK A01 T03510040  RH  015%=      5-min Rain = 0
KPPS 192120Z 27013G24KT 35/04 A2988 RMK A01 T03530043  RH  015%=      5-min Rain = 0
KPPS 192125Z 26015KT 35/04 A2987 RMK A01 T03520039  RH  015%=      5-min Rain = 0
KPPS 192130Z 27012G19KT 35/04 A2987 RMK A01 T03520037  RH  014%=      5-min Rain = 0
KPPS 192135Z 26014G21KT 36/04 A2987 RMK A01 T03550042  RH  015%=      5-min Rain = 0
KPPS 192140Z 24016G22KT 35/03 A2987 RMK A01 T03540032  RH  014%=      5-min Rain = 0
KPPS 192145Z 26014G19KT 35/03 A2987 RMK A01 T03530034  RH  014%=      5-min Rain = 0
KPPS 192150Z 28016G21KT 36/03 A2987 RMK A01 T03560032  RH  014%=      5-min Rain = 0
KPPS 192155Z 28013G21KT 36/03 A2986 RMK A01 T03550030  RH  013%=      5-min Rain = 0
KPPS 192200Z 28015G25KT 36/03 A2986 RMK A01 T03570030  RH  013%=      5-min Rain = 0
KPPS 192205Z 26017G24KT 36/03 A2986 RMK A01 T03560026  RH  013%=      5-min Rain = 0
KPPS 192210Z 26014G22KT 36/03 A2986 RMK A01 T03550027  RH  013%=      5-min Rain = 0
KPPS 192215Z 26015G22KT 35/02 A2986 RMK A01 T03530023  RH  013%=      5-min Rain = 0
KPPS 192220Z 26013G19KT 36/03 A2986 RMK A01 T03560031  RH  013%=      5-min Rain = 0
KPPS 192225Z 27013G19KT 36/03 A2986 RMK A01 T03570029  RH  013%=      5-min Rain = 0
KPPS 192230Z 26010G15KT 35/03 A2986 RMK A01 T03450025  RH  014%=      5-min Rain = 0
KPPS 192235Z 27013G19KT 35/02 A2985 RMK A01 T03470024  RH  013%=      5-min Rain = 0
KPPS 192240Z 30011G16KT 35/02 A2985 RMK A01 T03490024  RH  013%=      5-min Rain = 0
KPPS 192245Z 29010KT 34/02 A2985 RMK A01 T03410024  RH  014%=      5-min Rain = 0
KPPS 192250Z 28008KT 35/03 A2985 RMK A01 T03500033  RH  014%=      5-min Rain = 0
KPPS 192255Z 28007KT 35/03 A2985 RMK A01 T03450032  RH  014%=      5-min Rain = 0
KPPS 192300Z 28006KT 35/03 A2985 RMK A01 T03500034  RH  014%=      5-min Rain = 0
KPPS 192305Z 29006G13KT 35/03 A2984 RMK A01 T03510031  RH  014%=      5-min Rain = 0
KPPS 192310Z 27011G18KT 35/03 A2984 RMK A01 T03510031  RH  014%=      5-min Rain = 0
KPPS 192315Z 26008KT 34/03 A2984 RMK A01 T03440028  RH  014%=      5-min Rain = 0
KPPS 192320Z 26008KT 34/02 A2984 RMK A01 T03380023  RH  014%=      5-min Rain = 0
KPPS 192325Z 25007KT 34/03 A2984 RMK A01 T03350030  RH  015%=      5-min Rain = 0
KPPS 192330Z 25007KT 34/03 A2984 RMK A01 T03370028  RH  015%=      5-min Rain = 0
KPPS 192335Z 26005KT 35/03 A2984 RMK A01 T03490033  RH  014%=      5-min Rain = 0
KPPS 192340Z 27006KT 36/03 A2984 RMK A01 T03550032  RH  014%=      5-min Rain = 0
KPPS 192345Z 25005KT 36/03 A2983 RMK A01 T03560027  RH  013%=      5-min Rain = 0
KPPS 192350Z 28008G18KT 36/03 A2983 RMK A01 T03560030  RH  013%=      5-min Rain = 0
KPPS 192355Z 26013KT 36/02 A2983 RMK A01 T03550022  RH  013%=      5-min Rain = 0
KPPS 200000Z 27011G16KT 35/02 A2983 RMK A01 T03520022  RH  013%=      5-min Rain = 0
KPPS 200005Z 27012G17KT 35/02 A2983 RMK A01 T03520016  RH  012%=      5-min Rain = 0
KPPS 200010Z 25014G21KT 35/02 A2983 RMK A01 T03530019  RH  012%=      5-min Rain = 0
KPPS 200015Z 26014G22KT 35/02 A2983 RMK A01 T03520015  RH  012%=      5-min Rain = 0
KPPS 200020Z 26011G16KT 35/02 A2983 RMK A01 T03500020  RH  013%=      5-min Rain = 0
KPPS 200025Z 26016G22KT 35/01 A2982 RMK A01 T03490013  RH  012%=      5-min Rain = 0
KPPS 200030Z 26016G21KT 35/01 A2982 RMK A01 T03480012  RH  012%=      5-min Rain = 0
KPPS 200035Z 27013G18KT 35/01 A2982 RMK A01 T03470011  RH  012%=      5-min Rain = 0
KPPS 200040Z 27013G18KT 35/01 A2982 RMK A01 T03470011  RH  012%=      5-min Rain = 0
KPPS 200045Z 26012KT 35/01 A2982 RMK A01 T03450013  RH  012%=      5-min Rain = 0
KPPS 200050Z 27010KT 34/02 A2983 RMK A01 T03440019  RH  013%=      5-min Rain = 0
KPPS 200055Z 27010KT 34/02 A2983 RMK A01 T03420015  RH  013%=      5-min Rain = 0
KPPS 200100Z 26009KT 34/02 A2983 RMK A01 T03370022  RH  014%=      5-min Rain = 0
KPPS 200105Z 25009KT 34/02 A2983 RMK A01 T03360023  RH  014%=      5-min Rain = 0
KPPS 200110Z 24010KT 34/02 A2983 RMK A01 T03360021  RH  014%=      5-min Rain = 0
KPPS 200115Z 25009KT 33/02 A2982 RMK A01 T03340023  RH  014%=      5-min Rain = 0
KPPS 200120Z 24007KT 33/03 A2982 RMK A01 T03290029  RH  015%=      5-min Rain = 0
KPPS 200125Z 24007KT 33/03 A2983 RMK A01 T03250032  RH  016%=      5-min Rain = 0
KPPS 200130Z 24007KT 32/03 A2983 RMK A01 T03210033  RH  017%=      5-min Rain = 0
KPPS 200135Z 23006KT 32/03 A2983 RMK A01 T03160034  RH  017%=      5-min Rain = 0
KPPS 200140Z 23007KT 31/03 A2983 RMK A01 T03140029  RH  017%=      5-min Rain = 0
KPPS 200145Z 23007KT 31/03 A2983 RMK A01 T03140028  RH  017%=      5-min Rain = 0
KPPS 200150Z 22007KT 31/03 A2983 RMK A01 T03100029  RH  017%=      5-min Rain = 0
KPPS 200155Z 23007KT 31/03 A2983 RMK A01 T03050032  RH  018%=      5-min Rain = 0
KPPS 200200Z 23007KT 30/03 A2983 RMK A01 T03000032  RH  018%=      5-min Rain = 0
KPPS 200205Z 23007KT 30/03 A2983 RMK A01 T02970031  RH  019%=      5-min Rain = 0
KPPS 200210Z 23006KT 29/03 A2983 RMK A01 T02940034  RH  019%=      5-min Rain = 0
KPPS 200215Z 23007KT 29/04 A2984 RMK A01 T02910035  RH  020%=      5-min Rain = 0
KPPS 200220Z 23006KT 29/04 A2984 RMK A01 T02890035  RH  020%=      5-min Rain = 0
KPPS 200225Z 23005KT 29/04 A2984 RMK A01 T02900035  RH  020%=      5-min Rain = 0
KPPS 200230Z 23005KT 29/03 A2984 RMK A01 T02900034  RH  020%=      5-min Rain = 0
KPPS 200235Z 23005KT 29/03 A2984 RMK A01 T02890034  RH  020%=      5-min Rain = 0
KPPS 200240Z 23006KT 29/04 A2984 RMK A01 T02880036  RH  020%=      5-min Rain = 0
KPPS 200245Z 23006KT 29/04 A2984 RMK A01 T02870036  RH  020%=      5-min Rain = 0
KPPS 200250Z 23006KT 29/04 A2984 RMK A01 T02850039  RH  021%=      5-min Rain = 0
KPPS 200255Z 21006KT 28/04 A2984 RMK A01 T02820044  RH  022%=      5-min Rain = 0
KPPS 200300Z 19006KT 28/05 A2984 RMK A01 T02760053  RH  025%=      5-min Rain = 0
KPPS 200305Z 19006KT 27/06 A2985 RMK A01 T02670063  RH  028%=      5-min Rain = 0
KPPS 200310Z 19006KT 26/07 A2985 RMK A01 T02550069  RH  031%=      5-min Rain = 0
KPPS 200315Z 19006KT 25/07 A2985 RMK A01 T02500069  RH  032%=      5-min Rain = 0
KPPS 200320Z 20006KT 26/07 A2985 RMK A01 T02560069  RH  031%=      5-min Rain = 0
KPPS 200325Z 21006KT 27/06 A2985 RMK A01 T02660064  RH  028%=      5-min Rain = 0
KPPS 200330Z 22007KT 27/06 A2985 RMK A01 T02710061  RH  027%=      5-min Rain = 0
KPPS 200335Z 22008KT 27/06 A2986 RMK A01 T02690061  RH  027%=      5-min Rain = 0
KPPS 200340Z 22008KT 27/06 A2986 RMK A01 T02710058  RH  026%=      5-min Rain = 0
KPPS 200345Z 22006KT 27/06 A2986 RMK A01 T02710057  RH  026%=      5-min Rain = 0
KPPS 200350Z 23005KT 27/06 A2986 RMK A01 T02700058  RH  026%=      5-min Rain = 0
KPPS 200355Z 24004KT 26/06 A2986 RMK A01 T02630064  RH  029%=      5-min Rain = 0
KPPS 200400Z 23005KT 26/06 A2986 RMK A01 T02570063  RH  030%=      5-min Rain = 0
KPPS 200405Z 22005KT 26/06 A2986 RMK A01 T02550060  RH  029%=      5-min Rain = 0
KPPS 200410Z 22006KT 26/06 A2986 RMK A01 T02570056  RH  028%=      5-min Rain = 0
KPPS 200415Z 22006KT 26/05 A2986 RMK A01 T02580051  RH  027%=      5-min Rain = 0
KPPS 200420Z 22006KT 26/06 A2986 RMK A01 T02550057  RH  029%=      5-min Rain = 0
KPPS 200425Z 23006KT 25/07 A2986 RMK A01 T02450066  RH  032%=      5-min Rain = 0
KPPS 200430Z 23006KT 24/06 A2986 RMK A01 T02380064  RH  033%=      5-min Rain = 0
KPPS 200435Z 24005KT 24/07 A2986 RMK A01 T02350067  RH  035%=      5-min Rain = 0
KPPS 200440Z 25005KT 24/06 A2986 RMK A01 T02360062  RH  033%=      5-min Rain = 0
KPPS 200445Z 25005KT 24/06 A2986 RMK A01 T02370060  RH  033%=      5-min Rain = 0
KPPS 200450Z 25005KT 24/06 A2986 RMK A01 T02370061  RH  033%=      5-min Rain = 0
KPPS 200455Z 24005KT 24/06 A2986 RMK A01 T02360060  RH  033%=      5-min Rain = 0

Page generated in 0.0091 seconds.